Time;durP1;ratioP1;P1;durP2;ratioP2;P2;SDS_P1;SDS_P2;PMS_P1;PMS_P2;Temp;Humidity;BMP_temperature;BMP_pressure;BME280_temperature;BME280_humidity;BME280_pressure;Samples;Min_cycle;Max_cycle;Signal;HPM_P1;HPM_P2
2022/04/04 00:00:13;;;;;;;2.03;1.30;;;;;;;;;;5093283;28;20034;-86
2022/04/04 00:02:39;;;;;;;1.20;1.10;;;;;;;;;;5074907;28;20032;-85
2022/04/04 00:05:05;;;;;;;3.75;1.40;;;;;;;;;;5093482;28;20331;-85
2022/04/04 00:07:30;;;;;;;1.70;1.38;;;;;;;;;;5058790;28;20024;-85
2022/04/04 00:09:56;;;;;;;1.05;1.00;;;;;;;;;;5058222;28;20035;-86
2022/04/04 00:12:22;;;;;;;3.25;1.38;;;;;;;;;;5042758;28;20123;-85
2022/04/04 00:14:48;;;;;;;1.17;1.00;;;;;;;;;;5076950;28;20040;-85
2022/04/04 00:17:14;;;;;;;2.13;1.42;;;;;;;;;;5093757;28;20027;-84
2022/04/04 00:19:39;;;;;;;1.05;0.95;;;;;;;;;;5058433;28;20032;-83
2022/04/04 00:22:05;;;;;;;1.20;0.98;;;;;;;;;;5092766;28;20524;-84
2022/04/04 00:24:31;;;;;;;1.40;1.10;;;;;;;;;;5057793;28;20382;-84
2022/04/04 00:26:56;;;;;;;2.17;1.00;;;;;;;;;;5092590;28;20055;-84
2022/04/04 00:29:22;;;;;;;1.00;1.00;;;;;;;;;;5057765;28;20035;-82
2022/04/04 00:31:47;;;;;;;1.80;1.10;;;;;;;;;;5057694;28;20064;-83
2022/04/04 00:34:13;;;;;;;1.38;0.90;;;;;;;;;;5092493;28;20034;-83
2022/04/04 00:36:39;;;;;;;1.10;1.00;;;;;;;;;;5092699;28;20032;-83
2022/04/04 00:39:05;;;;;;;2.60;1.38;;;;;;;;;;5074441;28;20104;-83
2022/04/04 00:41:30;;;;;;;1.50;1.10;;;;;;;;;;5057697;28;20028;-85
2022/04/04 00:43:56;;;;;;;1.30;1.08;;;;;;;;;;5093151;28;20028;-85
2022/04/04 00:46:21;;;;;;;1.83;1.20;;;;;;;;;;5058263;28;20063;-82
2022/04/04 00:48:47;;;;;;;1.83;0.98;;;;;;;;;;5058104;28;20036;-86
2022/04/04 00:51:13;;;;;;;1.13;0.98;;;;;;;;;;5074637;28;20446;-83
2022/04/04 00:53:39;;;;;;;1.40;0.90;;;;;;;;;;5074069;28;20124;-83
2022/04/04 00:56:04;;;;;;;2.40;1.17;;;;;;;;;;5057471;28;20170;-83
2022/04/04 00:58:30;;;;;;;4.97;1.45;;;;;;;;;;5074242;28;20028;-83
2022/04/04 01:00:56;;;;;;;1.27;1.08;;;;;;;;;;5057425;28;20470;-82
2022/04/04 01:03:22;;;;;;;1.50;1.40;;;;;;;;;;5074335;28;20126;-83
2022/04/04 01:05:47;;;;;;;1.88;1.10;;;;;;;;;;5073511;28;20121;-83
2022/04/04 01:08:14;;;;;;;2.80;1.30;;;;;;;;;;5057619;28;20036;-83
2022/04/04 01:10:43;;;;;;;1.20;1.10;;;;;;;;;;5074407;28;20453;-83
2022/04/04 01:13:10;;;;;;;1.20;1.10;;;;;;;;;;5074201;28;20514;-83
2022/04/04 01:15:35;;;;;;;1.60;1.50;;;;;;;;;;5057135;28;20511;-83
2022/04/04 01:18:02;;;;;;;1.98;1.30;;;;;;;;;;5092205;28;20032;-83
2022/04/04 01:20:27;;;;;;;2.10;1.45;;;;;;;;;;5074228;28;20372;-83
2022/04/04 01:22:52;;;;;;;1.75;1.38;;;;;;;;;;5092421;28;20070;-82
2022/04/04 01:25:32;;;;;;;3.55;1.80;;;;;;;;;;5092169;28;20103;-86
2022/04/04 01:27:59;;;;;;;1.73;1.45;;;;;;;;;;5074171;28;20020;-83
2022/04/04 01:30:26;;;;;;;2.38;1.60;;;;;;;;;;5073814;28;20081;-82
2022/04/04 01:32:52;;;;;;;1.75;1.30;;;;;;;;;;5041050;28;20492;-83
2022/04/04 01:35:18;;;;;;;2.20;1.38;;;;;;;;;;5074097;28;20067;-83
2022/04/04 01:37:44;;;;;;;3.88;1.70;;;;;;;;;;5073640;28;20024;-84
2022/04/04 01:40:10;;;;;;;3.35;1.67;;;;;;;;;;5057188;28;20483;-83
2022/04/04 01:42:37;;;;;;;1.90;1.40;;;;;;;;;;5092121;28;20031;-84
2022/04/04 01:45:04;;;;;;;1.58;1.48;;;;;;;;;;5074264;28;20494;-84
2022/04/04 01:47:29;;;;;;;1.48;1.38;;;;;;;;;;5073629;28;20092;-84
2022/04/04 01:49:55;;;;;;;1.90;1.55;;;;;;;;;;5057123;28;20191;-84
2022/04/04 01:52:20;;;;;;;3.72;1.60;;;;;;;;;;5073687;28;20085;-85
2022/04/04 01:54:46;;;;;;;3.95;1.42;;;;;;;;;;5091982;28;20126;-83
2022/04/04 01:57:11;;;;;;;2.17;1.73;;;;;;;;;;5057131;28;20032;-82
2022/04/04 01:59:37;;;;;;;1.65;1.50;;;;;;;;;;5056817;28;20102;-84
2022/04/04 02:02:02;;;;;;;2.95;1.48;;;;;;;;;;5056650;28;20043;-83
2022/04/04 02:04:28;;;;;;;1.55;1.40;;;;;;;;;;5073588;28;20021;-82
2022/04/04 02:06:53;;;;;;;2.40;1.60;;;;;;;;;;5073639;28;20043;-82
2022/04/04 02:09:19;;;;;;;1.85;1.65;;;;;;;;;;5073514;28;20456;-83
2022/04/04 02:11:44;;;;;;;1.90;1.67;;;;;;;;;;5091783;28;20539;-84
2022/04/04 02:14:10;;;;;;;1.63;1.50;;;;;;;;;;5091299;28;20044;-83
2022/04/04 02:16:35;;;;;;;1.77;1.48;;;;;;;;;;5073723;28;20036;-84
2022/04/04 02:19:00;;;;;;;2.75;1.70;;;;;;;;;;5060448;28;20044;-84
2022/04/04 02:21:26;;;;;;;1.98;1.50;;;;;;;;;;5077357;28;20111;-85
2022/04/04 02:23:52;;;;;;;1.88;1.40;;;;;;;;;;5095455;28;20032;-85
2022/04/04 02:26:18;;;;;;;3.17;1.73;;;;;;;;;;5077195;28;20100;-85
2022/04/04 02:28:43;;;;;;;14.48;2.15;;;;;;;;;;5077479;28;20023;-84
2022/04/04 02:31:08;;;;;;;1.80;1.70;;;;;;;;;;5095327;28;20032;-84
2022/04/04 02:33:34;;;;;;;2.28;1.70;;;;;;;;;;5060483;28;20036;-84
2022/04/04 02:36:00;;;;;;;2.75;1.92;;;;;;;;;;5077074;28;20032;-84
2022/04/04 02:38:27;;;;;;;2.40;1.90;;;;;;;;;;5095203;28;20062;-85
2022/04/04 02:40:52;;;;;;;1.90;1.55;;;;;;;;;;5043630;28;20032;-85
2022/04/04 02:43:18;;;;;;;3.42;1.75;;;;;;;;;;5094843;28;20556;-86
2022/04/04 02:45:45;;;;;;;4.60;1.98;;;;;;;;;;5060038;28;20051;-86
2022/04/04 02:48:11;;;;;;;2.47;1.70;;;;;;;;;;5095090;28;20340;-85
2022/04/04 02:50:36;;;;;;;2.65;2.00;;;;;;;;;;5059699;28;20050;-84
2022/04/04 02:53:03;;;;;;;4.60;1.63;;;;;;;;;;5060096;28;20028;-84
2022/04/04 02:58:14;;;;;;;1.95;1.70;;;;;;;;;;5079220;28;20041;-83
2022/04/04 03:00:40;;;;;;;1.65;1.50;;;;;;;;;;5076706;28;20031;-84
2022/04/04 03:03:06;;;;;;;3.58;1.80;;;;;;;;;;5059623;28;20173;-84
2022/04/04 03:05:31;;;;;;;2.67;1.67;;;;;;;;;;5076567;28;20423;-84
2022/04/04 03:07:57;;;;;;;1.75;1.65;;;;;;;;;;5075915;28;20486;-84
2022/04/04 03:10:22;;;;;;;3.17;1.85;;;;;;;;;;5059497;28;20471;-83
2022/04/04 03:12:49;;;;;;;1.85;1.67;;;;;;;;;;5058958;28;20439;-83
2022/04/04 03:15:17;;;;;;;3.83;1.65;;;;;;;;;;5093869;28;20048;-83
2022/04/04 03:17:44;;;;;;;2.55;1.73;;;;;;;;;;5094345;28;20043;-83
2022/04/04 03:20:11;;;;;;;2.85;1.80;;;;;;;;;;5076099;28;20459;-83
2022/04/04 03:22:40;;;;;;;4.05;2.28;;;;;;;;;;5059435;28;20067;-83
2022/04/04 03:25:08;;;;;;;3.17;1.90;;;;;;;;;;5093979;28;20111;-83
2022/04/04 03:27:34;;;;;;;7.82;2.10;;;;;;;;;;5059670;28;20055;-83
2022/04/04 03:29:59;;;;;;;3.95;2.08;;;;;;;;;;5074954;28;20048;-84
2022/04/04 03:32:25;;;;;;;4.93;1.75;;;;;;;;;;5093964;28;20430;-84
2022/04/04 03:34:50;;;;;;;2.95;1.70;;;;;;;;;;5075848;28;20031;-84
2022/04/04 03:37:16;;;;;;;2.40;1.65;;;;;;;;;;5075888;28;20488;-83
2022/04/04 03:39:42;;;;;;;3.58;1.70;;;;;;;;;;5075365;28;20126;-84
2022/04/04 03:42:07;;;;;;;1.95;1.70;;;;;;;;;;5093898;28;20127;-82
2022/04/04 03:44:33;;;;;;;2.75;1.90;;;;;;;;;;5093439;28;20483;-82
2022/04/04 03:46:58;;;;;;;4.38;1.65;;;;;;;;;;5075619;28;20087;-83
2022/04/04 03:49:24;;;;;;;2.15;1.70;;;;;;;;;;5093964;28;20194;-84
2022/04/04 03:51:50;;;;;;;2.90;1.92;;;;;;;;;;5075463;28;20162;-83
2022/04/04 03:54:16;;;;;;;2.08;1.65;;;;;;;;;;5093397;28;20114;-87
2022/04/04 03:56:41;;;;;;;2.63;1.80;;;;;;;;;;5093771;28;20020;-85
2022/04/04 03:59:06;;;;;;;2.80;1.73;;;;;;;;;;5075015;28;20034;-85
2022/04/04 04:01:32;;;;;;;3.65;1.60;;;;;;;;;;5075024;28;20036;-85
2022/04/04 04:03:57;;;;;;;4.15;2.20;;;;;;;;;;5058849;28;20099;-86
2022/04/04 04:06:23;;;;;;;1.92;1.70;;;;;;;;;;5074996;28;20095;-84
2022/04/04 04:08:48;;;;;;;5.53;1.83;;;;;;;;;;5075053;28;20077;-83
2022/04/04 04:11:15;;;;;;;2.47;1.70;;;;;;;;;;5093085;28;20399;-81
2022/04/04 04:13:42;;;;;;;2.80;1.90;;;;;;;;;;5057986;28;20024;-81
2022/04/04 04:16:13;;;;;;;1.85;1.52;;;;;;;;;;5074662;28;20564;-81
2022/04/04 04:18:39;;;;;;;4.57;1.50;;;;;;;;;;5093379;28;20032;-81
2022/04/04 04:21:06;;;;;;;4.70;1.70;;;;;;;;;;5074582;28;20403;-81
2022/04/04 04:23:32;;;;;;;2.70;1.55;;;;;;;;;;5058271;28;20118;-82
2022/04/04 04:25:58;;;;;;;2.33;1.38;;;;;;;;;;5074745;28;20099;-81
2022/04/04 04:28:23;;;;;;;2.92;1.63;;;;;;;;;;5075161;28;20039;-80
2022/04/04 04:30:49;;;;;;;3.60;1.42;;;;;;;;;;5093256;28;20036;-80
2022/04/04 04:33:14;;;;;;;4.18;2.00;;;;;;;;;;5058350;28;20034;-83
2022/04/04 04:35:40;;;;;;;5.80;1.75;;;;;;;;;;5058454;28;20467;-80
2022/04/04 04:38:07;;;;;;;12.88;1.88;;;;;;;;;;5093412;28;20024;-80
2022/04/04 04:40:32;;;;;;;3.90;1.50;;;;;;;;;;5074915;28;20024;-82
2022/04/04 04:42:58;;;;;;;10.02;2.00;;;;;;;;;;5074936;28;20046;-82
2022/04/04 04:45:24;;;;;;;7.05;2.00;;;;;;;;;;5074906;28;20035;-82
2022/04/04 04:47:50;;;;;;;4.57;1.70;;;;;;;;;;5074833;28;20032;-81
2022/04/04 04:50:18;;;;;;;4.88;1.60;;;;;;;;;;5075197;28;20034;-81
2022/04/04 04:52:45;;;;;;;2.85;1.67;;;;;;;;;;5058376;28;20501;-80
2022/04/04 04:55:11;;;;;;;5.22;1.90;;;;;;;;;;5075055;28;20028;-83
2022/04/04 04:57:37;;;;;;;6.43;2.05;;;;;;;;;;5077355;28;20046;-86
2022/04/04 05:00:05;;;;;;;11.75;1.80;;;;;;;;;;5075780;28;20023;-85
2022/04/04 05:02:31;;;;;;;3.67;1.60;;;;;;;;;;5093890;28;20073;-84
2022/04/04 05:04:56;;;;;;;3.78;1.60;;;;;;;;;;5059993;28;20088;-85
2022/04/04 05:07:23;;;;;;;3.80;1.50;;;;;;;;;;5077620;28;20059;-85
2022/04/04 05:09:48;;;;;;;14.30;1.92;;;;;;;;;;5059599;28;20028;-86
2022/04/04 05:12:14;;;;;;;5.65;1.73;;;;;;;;;;5076890;28;20039;-86
2022/04/04 05:14:40;;;;;;;2.20;1.30;;;;;;;;;;5059511;28;20044;-86
2022/04/04 05:17:06;;;;;;;2.35;1.20;;;;;;;;;;5092958;28;20430;-85
2022/04/04 05:19:31;;;;;;;4.65;1.48;;;;;;;;;;5060338;28;20494;-87
2022/04/04 05:21:57;;;;;;;4.43;1.38;;;;;;;;;;5077074;28;20430;-87
2022/04/04 05:24:22;;;;;;;2.22;1.40;;;;;;;;;;5060450;28;20548;-87
2022/04/04 05:26:48;;;;;;;2.13;1.38;;;;;;;;;;5076422;28;20077;-86
2022/04/04 05:29:17;;;;;;;3.50;1.58;;;;;;;;;;5076214;28;20028;-86
2022/04/04 05:31:43;;;;;;;2.08;1.27;;;;;;;;;;5076079;28;20099;-87
2022/04/04 05:34:08;;;;;;;3.50;1.50;;;;;;;;;;5058746;28;20099;-86
2022/04/04 05:36:34;;;;;;;4.03;1.50;;;;;;;;;;5076322;28;20046;-89
2022/04/04 05:39:00;;;;;;;1.38;1.27;;;;;;;;;;5078006;28;20105;-84
2022/04/04 05:41:27;;;;;;;2.33;1.35;;;;;;;;;;5076755;28;20103;-84
2022/04/04 05:43:53;;;;;;;1.45;1.33;;;;;;;;;;5094291;28;20025;-85
2022/04/04 05:46:18;;;;;;;2.47;1.35;;;;;;;;;;5094673;28;20028;-85
2022/04/04 05:48:44;;;;;;;2.33;1.30;;;;;;;;;;5093115;28;20180;-86
2022/04/04 05:51:10;;;;;;;2.15;1.48;;;;;;;;;;5076168;28;20031;-86
2022/04/04 05:53:36;;;;;;;1.40;1.30;;;;;;;;;;5078108;28;20028;-87
2022/04/04 05:56:02;;;;;;;3.20;1.63;;;;;;;;;;5063002;28;20106;-87
2022/04/04 05:58:28;;;;;;;5.32;1.40;;;;;;;;;;5079743;28;20097;-85
2022/04/04 06:00:54;;;;;;;3.85;1.55;;;;;;;;;;5079557;28;20114;-87
2022/04/04 06:03:20;;;;;;;2.40;1.50;;;;;;;;;;5078425;28;20056;-85
2022/04/04 06:05:49;;;;;;;2.85;1.50;;;;;;;;;;5078554;28;20056;-87
2022/04/04 06:08:18;;;;;;;4.70;1.80;;;;;;;;;;5078865;28;20032;-85
2022/04/04 06:10:47;;;;;;;4.18;1.40;;;;;;;;;;5078428;28;20024;-86
2022/04/04 06:13:14;;;;;;;1.75;1.30;;;;;;;;;;5078796;28;20022;-87
2022/04/04 06:15:40;;;;;;;1.80;1.40;;;;;;;;;;5061647;28;20124;-86
2022/04/04 06:18:06;;;;;;;2.75;1.52;;;;;;;;;;5079119;28;20118;-86
2022/04/04 06:20:31;;;;;;;2.00;1.45;;;;;;;;;;5078739;28;20051;-86
2022/04/04 06:22:57;;;;;;;2.75;1.40;;;;;;;;;;5061394;28;20118;-83
2022/04/04 06:25:22;;;;;;;2.33;1.42;;;;;;;;;;5066957;28;20050;-91
2022/04/04 06:27:47;;;;;;;1.73;1.23;;;;;;;;;;5063492;28;20058;-91
2022/04/04 06:30:13;;;;;;;3.75;1.40;;;;;;;;;;5079271;28;20104;-91
2022/04/04 06:32:44;;;;;;;3.30;1.30;;;;;;;;;;5062126;28;20507;-88
2022/04/04 06:35:14;;;;;;;4.90;1.15;;;;;;;;;;5062260;28;20035;-88
2022/04/04 06:37:40;;;;;;;2.40;1.60;;;;;;;;;;5063717;28;20099;-87
2022/04/04 06:40:06;;;;;;;4.38;1.40;;;;;;;;;;5080562;28;20085;-88
2022/04/04 06:42:40;;;;;;;3.95;1.30;;;;;;;;;;5079039;28;20032;-88
2022/04/04 06:45:06;;;;;;;2.60;1.30;;;;;;;;;;5062091;28;20028;-87
2022/04/04 06:47:33;;;;;;;2.60;1.42;;;;;;;;;;5078518;28;20505;-87
2022/04/04 06:49:59;;;;;;;4.07;1.52;;;;;;;;;;5077913;28;20048;-88
2022/04/04 06:52:26;;;;;;;5.53;1.35;;;;;;;;;;5077609;28;20039;-88
2022/04/04 06:54:53;;;;;;;3.55;1.23;;;;;;;;;;5061926;28;20035;-89
2022/04/04 06:57:20;;;;;;;2.83;1.55;;;;;;;;;;5061588;28;20024;-87
2022/04/04 06:59:46;;;;;;;2.40;1.40;;;;;;;;;;5078428;28;20050;-87
2022/04/04 07:02:11;;;;;;;3.42;1.65;;;;;;;;;;5045736;28;20534;-88
2022/04/04 07:04:37;;;;;;;2.28;1.38;;;;;;;;;;5076899;28;20020;-88
2022/04/04 07:07:06;;;;;;;9.25;1.70;;;;;;;;;;5063053;28;20028;-89
2022/04/04 07:09:31;;;;;;;5.18;1.40;;;;;;;;;;5079587;28;20028;-90
2022/04/04 07:11:57;;;;;;;5.82;1.83;;;;;;;;;;5080064;28;20028;-92
2022/04/04 07:14:24;;;;;;;5.20;1.55;;;;;;;;;;5080911;28;20491;-90
2022/04/04 07:16:52;;;;;;;1.30;1.20;;;;;;;;;;5081028;28;20035;-89
2022/04/04 07:19:18;;;;;;;5.43;1.65;;;;;;;;;;5105075;28;20074;-89
2022/04/04 07:21:44;;;;;;;5.38;1.50;;;;;;;;;;5087790;28;20103;-90
2022/04/04 07:24:09;;;;;;;7.35;1.63;;;;;;;;;;5070049;28;20028;-90
2022/04/04 07:26:35;;;;;;;7.85;1.40;;;;;;;;;;5098460;28;20115;-91
2022/04/04 07:29:01;;;;;;;3.45;1.25;;;;;;;;;;5081984;28;20032;-92
2022/04/04 07:31:26;;;;;;;2.60;1.67;;;;;;;;;;5080726;28;20039;-91
2022/04/04 07:33:52;;;;;;;2.45;1.50;;;;;;;;;;5081119;28;20024;-91
2022/04/04 07:36:18;;;;;;;3.75;1.70;;;;;;;;;;5064625;28;20039;-89
2022/04/04 07:38:43;;;;;;;2.53;1.40;;;;;;;;;;5064539;28;20040;-89
2022/04/04 07:41:09;;;;;;;3.75;1.20;;;;;;;;;;5079733;28;20040;-91
2022/04/04 07:43:35;;;;;;;3.97;1.40;;;;;;;;;;5078808;28;20118;-91
2022/04/04 07:46:00;;;;;;;6.82;1.50;;;;;;;;;;5078859;28;20048;-90
2022/04/04 07:48:26;;;;;;;1.52;1.30;;;;;;;;;;5077864;28;20097;-88
2022/04/04 07:50:52;;;;;;;1.48;1.38;;;;;;;;;;5062405;28;20027;-87
2022/04/04 07:53:18;;;;;;;5.78;1.60;;;;;;;;;;5063256;28;20076;-89
2022/04/04 07:55:43;;;;;;;1.50;1.30;;;;;;;;;;5072026;28;20028;-89
2022/04/04 07:58:09;;;;;;;1.83;1.25;;;;;;;;;;5078414;28;20372;-90
2022/04/04 08:00:35;;;;;;;2.65;1.25;;;;;;;;;;5077966;28;20424;-94
2022/04/04 08:03:02;;;;;;;4.10;1.40;;;;;;;;;;5078041;28;20051;-92
2022/04/04 08:05:28;;;;;;;2.85;1.67;;;;;;;;;;5044543;28;20407;-90
2022/04/04 08:07:53;;;;;;;4.72;1.85;;;;;;;;;;5077797;28;20031;-89
2022/04/04 08:10:19;;;;;;;5.80;1.33;;;;;;;;;;5044619;28;20074;-91
2022/04/04 08:12:46;;;;;;;2.63;1.20;;;;;;;;;;5047116;28;20056;-91
2022/04/04 08:15:11;;;;;;;5.93;1.45;;;;;;;;;;5060055;28;20403;-90
2022/04/04 08:17:38;;;;;;;4.90;1.60;;;;;;;;;;5060255;28;20024;-88
2022/04/04 08:20:04;;;;;;;13.60;1.95;;;;;;;;;;5078816;28;20473;-85
2022/04/04 08:22:29;;;;;;;3.78;1.25;;;;;;;;;;5073487;28;20039;-87
2022/04/04 08:24:55;;;;;;;2.88;1.30;;;;;;;;;;5056691;28;20036;-88
2022/04/04 08:27:22;;;;;;;3.13;1.60;;;;;;;;;;5077088;28;20034;-90
2022/04/04 08:29:47;;;;;;;1.60;1.30;;;;;;;;;;5074156;28;20028;-87
2022/04/04 08:32:13;;;;;;;2.10;1.30;;;;;;;;;;5056646;28;20456;-87
2022/04/04 08:34:39;;;;;;;2.17;1.25;;;;;;;;;;5056514;28;20052;-88
2022/04/04 08:37:04;;;;;;;1.70;1.30;;;;;;;;;;5059563;28;20028;-88
2022/04/04 08:39:30;;;;;;;4.88;1.50;;;;;;;;;;5072583;28;20126;-88
2022/04/04 08:41:56;;;;;;;4.10;1.42;;;;;;;;;;5073346;28;20025;-88
2022/04/04 08:44:21;;;;;;;1.45;1.33;;;;;;;;;;5056430;28;20025;-90
2022/04/04 08:46:47;;;;;;;3.38;1.60;;;;;;;;;;5057670;28;20028;-89
2022/04/04 08:49:12;;;;;;;2.55;1.50;;;;;;;;;;5077224;28;20115;-89
2022/04/04 08:51:38;;;;;;;2.08;1.40;;;;;;;;;;5075954;28;20339;-90
2022/04/04 08:54:04;;;;;;;2.08;1.42;;;;;;;;;;5072743;28;20029;-90
2022/04/04 08:56:30;;;;;;;2.05;1.45;;;;;;;;;;5092575;28;20031;-90
2022/04/04 08:58:56;;;;;;;2.10;1.25;;;;;;;;;;5097105;28;20032;-87
2022/04/04 09:01:24;;;;;;;1.25;1.15;;;;;;;;;;5076741;28;20035;-84
2022/04/04 09:04:05;;;;;;;2.10;1.42;;;;;;;;;;5091862;28;20039;-83
2022/04/04 09:06:31;;;;;;;1.67;1.55;;;;;;;;;;5093741;28;20024;-84
2022/04/04 09:08:57;;;;;;;1.98;1.20;;;;;;;;;;5075420;28;20032;-83
2022/04/04 09:11:23;;;;;;;2.95;1.50;;;;;;;;;;5093361;28;20085;-83
2022/04/04 09:14:08;;;;;;;1.67;1.05;;;;;;;;;;5091294;28;20118;-84
2022/04/04 09:16:34;;;;;;;3.40;1.63;;;;;;;;;;5076546;28;20064;-87
2022/04/04 09:19:00;;;;;;;1.58;1.33;;;;;;;;;;5095076;28;20154;-88
2022/04/04 09:21:25;;;;;;;1.40;1.30;;;;;;;;;;5061024;28;20147;-86
2022/04/04 09:23:54;;;;;;;2.70;1.73;;;;;;;;;;5095220;28;20397;-89
2022/04/04 09:26:34;;;;;;;5.47;1.52;;;;;;;;;;5093086;28;20513;-89
2022/04/04 09:29:21;;;;;;;2.63;1.60;;;;;;;;;;5079722;28;20028;-87
2022/04/04 09:32:09;;;;;;;2.55;1.55;;;;;;;;;;5080134;28;20031;-89
2022/04/04 09:34:53;;;;;;;2.17;1.55;;;;;;;;;;5098445;28;20044;-89
2022/04/04 09:37:19;;;;;;;2.08;1.40;;;;;;;;;;5097300;28;20486;-87
2022/04/04 09:39:45;;;;;;;1.83;1.30;;;;;;;;;;5100831;28;20077;-89
2022/04/04 09:42:19;;;;;;;4.47;1.35;;;;;;;;;;5099025;28;20118;-91
2022/04/04 09:44:58;;;;;;;1.77;1.35;;;;;;;;;;5079211;28;20070;-89
2022/04/04 09:47:53;;;;;;;1.30;1.20;;;;;;;;;;5097012;28;20511;-86
2022/04/04 09:50:36;;;;;;;1.95;1.23;;;;;;;;;;5097618;28;20111;-85
2022/04/04 09:53:06;;;;;;;2.67;1.45;;;;;;;;;;5080393;28;20394;-86
2022/04/04 09:55:41;;;;;;;1.52;1.20;;;;;;;;;;5079437;28;20032;-86
2022/04/04 09:58:14;;;;;;;2.45;1.35;;;;;;;;;;5082965;28;20436;-88
2022/04/04 10:00:40;;;;;;;1.73;1.15;;;;;;;;;;5085775;28;20453;-88
2022/04/04 10:03:12;;;;;;;5.40;1.33;;;;;;;;;;5102546;28;20058;-87
2022/04/04 10:05:39;;;;;;;5.85;1.23;;;;;;;;;;5089854;28;20474;-87
2022/04/04 10:08:05;;;;;;;2.08;1.05;;;;;;;;;;5085045;28;20036;-88
2022/04/04 10:10:31;;;;;;;5.88;1.30;;;;;;;;;;5068998;28;20028;-89
2022/04/04 10:12:58;;;;;;;9.30;1.85;;;;;;;;;;5102769;28;20028;-89
2022/04/04 10:15:24;;;;;;;4.72;1.13;;;;;;;;;;5086169;28;20501;-91
2022/04/04 10:17:51;;;;;;;6.30;1.27;;;;;;;;;;5085657;28;20036;-89
2022/04/04 10:20:17;;;;;;;2.83;1.08;;;;;;;;;;5083608;28;20620;-89
2022/04/04 10:22:44;;;;;;;2.10;1.20;;;;;;;;;;5080042;28;20024;-89
2022/04/04 10:25:14;;;;;;;2.88;1.30;;;;;;;;;;5098141;28;20035;-88
2022/04/04 10:27:40;;;;;;;2.30;1.10;;;;;;;;;;5075049;28;20032;-87
2022/04/04 10:30:08;;;;;;;5.82;1.10;;;;;;;;;;5075077;28;20059;-87
2022/04/04 10:32:34;;;;;;;6.18;1.10;;;;;;;;;;5078070;28;20051;-86
2022/04/04 10:35:12;;;;;;;3.67;1.10;;;;;;;;;;5059658;28;20058;-90
2022/04/04 10:37:44;;;;;;;2.42;1.10;;;;;;;;;;5077632;28;20111;-90
2022/04/04 10:40:19;;;;;;;5.10;1.00;;;;;;;;;;5075316;28;20127;-91
2022/04/04 10:42:46;;;;;;;3.25;0.95;;;;;;;;;;5075359;28;20058;-89
2022/04/04 10:45:15;;;;;;;5.85;1.20;;;;;;;;;;5060097;28;20077;-90
2022/04/04 10:47:42;;;;;;;2.80;1.05;;;;;;;;;;5077917;28;20028;-90
2022/04/04 10:50:30;;;;;;;2.17;1.00;;;;;;;;;;5077633;28;20444;-91
2022/04/04 10:53:03;;;;;;;1.15;1.05;;;;;;;;;;5080569;28;20020;-90
2022/04/04 10:55:34;;;;;;;2.13;1.00;;;;;;;;;;5065899;28;20029;-90
2022/04/04 10:58:15;;;;;;;1.58;1.10;;;;;;;;;;5093537;28;20021;-91
2022/04/04 11:01:05;;;;;;;1.20;0.70;;;;;;;;;;5096846;28;20020;-91
2022/04/04 11:03:32;;;;;;;5.00;1.00;;;;;;;;;;5080173;28;20055;-90
2022/04/04 11:08:57;;;;;;;;;;;;;;;;;;5094819;28;20058;-92
2022/04/04 11:11:47;;;;;;;1.73;1.00;;;;;;;;;;5083222;28;19927;-91
2022/04/04 11:14:14;;;;;;;0.93;0.85;;;;;;;;;;5054763;28;20021;-90
2022/04/04 11:17:08;;;;;;;2.10;1.05;;;;;;;;;;5054523;28;20144;-89
2022/04/04 11:20:21;;;;;;;0.87;0.87;;;;;;;;;;5055119;28;20036;-90
2022/04/04 11:22:51;;;;;;;2.22;1.00;;;;;;;;;;5035063;28;20437;-85
2022/04/04 11:25:19;;;;;;;0.95;0.85;;;;;;;;;;5056311;28;20023;-89
2022/04/04 11:27:52;;;;;;;2.10;1.05;;;;;;;;;;5055292;28;20032;-90
2022/04/04 11:30:21;;;;;;;1.80;1.08;;;;;;;;;;5055425;28;20025;-90
2022/04/04 11:32:49;;;;;;;0.80;0.80;;;;;;;;;;5055372;28;20041;-87
2022/04/04 11:35:22;;;;;;;2.60;0.90;;;;;;;;;;5037489;28;20108;-87
2022/04/04 11:38:00;;;;;;;2.38;0.68;;;;;;;;;;5054025;28;20063;-90
2022/04/04 11:40:34;;;;;;;0.60;0.60;;;;;;;;;;5057374;28;20045;-88
2022/04/04 11:43:02;;;;;;;1.40;0.80;;;;;;;;;;5082451;28;20390;-90
2022/04/04 11:45:32;;;;;;;0.57;0.57;;;;;;;;;;5097248;28;20028;-90
2022/04/04 11:48:04;;;;;;;0.88;0.75;;;;;;;;;;5078867;28;20032;-92
2022/04/04 11:50:34;;;;;;;1.35;0.70;;;;;;;;;;5094228;28;20024;-91
2022/04/04 11:53:05;;;;;;;1.77;0.90;;;;;;;;;;5098147;28;20020;-91
2022/04/04 11:55:32;;;;;;;1.13;0.80;;;;;;;;;;5079718;28;20035;-92
2022/04/04 11:58:12;;;;;;;0.70;0.70;;;;;;;;;;5097775;28;20028;-92
2022/04/04 12:00:40;;;;;;;1.23;0.80;;;;;;;;;;5093832;28;20024;-90
2022/04/04 12:03:10;;;;;;;0.80;0.80;;;;;;;;;;5095824;28;20042;-89
2022/04/04 12:05:40;;;;;;;1.85;0.60;;;;;;;;;;5081678;28;20028;-91
2022/04/04 12:08:06;;;;;;;0.57;0.57;;;;;;;;;;5080717;28;20128;-85
2022/04/04 12:10:33;;;;;;;0.60;0.60;;;;;;;;;;5067787;28;20028;-89
2022/04/04 12:13:05;;;;;;;0.80;0.80;;;;;;;;;;5100626;28;20023;-86
2022/04/04 12:15:34;;;;;;;3.42;0.80;;;;;;;;;;5093539;28;20044;-84
2022/04/04 12:18:00;;;;;;;0.65;0.65;;;;;;;;;;5086523;28;20103;-83
2022/04/04 12:20:35;;;;;;;3.72;0.85;;;;;;;;;;5072511;28;20028;-86
2022/04/04 12:25:45;;;;;;;3.65;0.60;;;;;;;;;;5073197;28;20090;-84
2022/04/04 12:28:10;;;;;;;1.98;0.70;;;;;;;;;;5071883;28;20032;-88
2022/04/04 12:30:37;;;;;;;3.22;0.82;;;;;;;;;;5072419;28;20086;-91
2022/04/04 12:33:07;;;;;;;3.22;0.88;;;;;;;;;;5055902;28;20033;-88
2022/04/04 12:35:39;;;;;;;1.10;0.70;;;;;;;;;;5055452;28;20032;-89
2022/04/04 12:38:04;;;;;;;0.70;0.70;;;;;;;;;;5072064;28;20081;-89
2022/04/04 12:40:30;;;;;;;0.50;0.50;;;;;;;;;;5072162;28;20032;-88
2022/04/04 12:43:05;;;;;;;0.55;0.55;;;;;;;;;;5072426;28;20384;-87
2022/04/04 12:45:32;;;;;;;0.57;0.52;;;;;;;;;;5072173;28;20074;-89
2022/04/04 12:48:04;;;;;;;0.70;0.60;;;;;;;;;;5079051;28;20035;-87
2022/04/04 12:50:37;;;;;;;0.90;0.50;;;;;;;;;;5095024;28;20062;-89
2022/04/04 12:53:04;;;;;;;0.50;0.50;;;;;;;;;;5094977;28;20055;-88
2022/04/04 12:55:30;;;;;;;0.68;0.43;;;;;;;;;;5060414;28;20348;-88
2022/04/04 12:58:23;;;;;;;1.40;0.40;;;;;;;;;;5075882;28;20039;-88
2022/04/04 13:00:50;;;;;;;0.47;0.47;;;;;;;;;;5092707;28;20038;-90
2022/04/04 13:03:27;;;;;;;0.47;0.40;;;;;;;;;;5057637;28;20028;-89
2022/04/04 13:05:57;;;;;;;0.40;0.40;;;;;;;;;;5076042;28;20028;-90
2022/04/04 13:08:25;;;;;;;0.50;0.50;;;;;;;;;;5072201;28;20471;-90
2022/04/04 13:11:01;;;;;;;0.40;0.40;;;;;;;;;;5072603;28;20031;-90
2022/04/04 13:13:26;;;;;;;0.73;0.50;;;;;;;;;;5073868;28;20479;-89
2022/04/04 13:15:52;;;;;;;0.60;0.60;;;;;;;;;;5072101;28;20063;-87
2022/04/04 13:18:17;;;;;;;0.65;0.50;;;;;;;;;;5075034;28;20039;-90
2022/04/04 13:20:42;;;;;;;0.40;0.40;;;;;;;;;;5077256;28;20064;-89
2022/04/04 13:23:08;;;;;;;0.60;0.60;;;;;;;;;;5074680;28;20548;-89
2022/04/04 13:25:33;;;;;;;0.88;0.50;;;;;;;;;;5077073;28;20021;-92
2022/04/04 13:27:59;;;;;;;0.40;0.40;;;;;;;;;;5073379;28;20444;-90
2022/04/04 13:30:24;;;;;;;0.50;0.50;;;;;;;;;;5074992;28;20032;-90
2022/04/04 13:32:50;;;;;;;0.47;0.47;;;;;;;;;;5057905;28;20078;-90
2022/04/04 13:35:15;;;;;;;0.65;0.60;;;;;;;;;;5074700;28;20403;-89
2022/04/04 13:37:41;;;;;;;0.50;0.50;;;;;;;;;;5073487;28;20029;-89
2022/04/04 13:40:07;;;;;;;0.60;0.60;;;;;;;;;;5073355;28;20033;-90
2022/04/04 13:42:33;;;;;;;0.50;0.50;;;;;;;;;;5073731;28;20024;-90
2022/04/04 13:44:59;;;;;;;0.50;0.50;;;;;;;;;;5074327;28;20051;-90
2022/04/04 13:47:24;;;;;;;0.50;0.50;;;;;;;;;;5039953;28;20032;-86
2022/04/04 13:49:50;;;;;;;1.40;0.40;;;;;;;;;;5075986;28;20044;-84
2022/04/04 13:52:15;;;;;;;0.50;0.50;;;;;;;;;;5075135;28;20038;-87
2022/04/04 13:54:42;;;;;;;0.30;0.30;;;;;;;;;;5093204;28;20111;-88
2022/04/04 13:57:10;;;;;;;0.88;0.60;;;;;;;;;;5077607;28;20020;-87
2022/04/04 13:59:36;;;;;;;2.55;0.70;;;;;;;;;;5094379;28;20028;-84
2022/04/04 14:02:01;;;;;;;6.93;0.60;;;;;;;;;;5088408;28;20024;-91
2022/04/04 14:04:27;;;;;;;0.68;0.65;;;;;;;;;;5074237;28;20101;-88
2022/04/04 14:06:52;;;;;;;1.27;0.65;;;;;;;;;;5071911;28;20083;-90
2022/04/04 14:09:18;;;;;;;3.17;0.50;;;;;;;;;;5073852;28;20024;-91
2022/04/04 14:11:45;;;;;;;4.10;0.80;;;;;;;;;;5071583;28;20032;-90
2022/04/04 14:14:12;;;;;;;6.03;0.70;;;;;;;;;;5059089;28;20113;-90
2022/04/04 14:16:39;;;;;;;1.58;0.40;;;;;;;;;;5059843;28;20464;-92
2022/04/04 14:19:04;;;;;;;3.05;1.30;;;;;;;;;;5076431;28;20495;-92
2022/04/04 14:21:30;;;;;;;0.90;0.45;;;;;;;;;;5079787;28;20040;-93
2022/04/04 14:23:55;;;;;;;3.42;0.43;;;;;;;;;;5069498;28;20036;-91
2022/04/04 14:26:21;;;;;;;0.50;0.50;;;;;;;;;;5068098;28;20407;-93
2022/04/04 14:28:47;;;;;;;2.95;0.35;;;;;;;;;;5052793;28;20039;-90
2022/04/04 14:31:12;;;;;;;1.13;0.40;;;;;;;;;;5063812;28;20071;-92
2022/04/04 14:33:38;;;;;;;1.40;0.52;;;;;;;;;;5077216;28;20395;-91
2022/04/04 14:36:04;;;;;;;3.00;0.50;;;;;;;;;;5081056;28;20040;-91
2022/04/04 14:38:30;;;;;;;0.45;0.40;;;;;;;;;;5096570;28;20100;-89
2022/04/04 14:40:56;;;;;;;0.30;0.30;;;;;;;;;;5098930;28;20032;-91
2022/04/04 14:43:22;;;;;;;0.63;0.50;;;;;;;;;;5081007;28;20062;-92
2022/04/04 14:45:48;;;;;;;0.45;0.45;;;;;;;;;;5097553;28;20021;-91
2022/04/04 14:48:15;;;;;;;0.17;0.17;;;;;;;;;;5087719;28;20071;-91
2022/04/04 14:50:44;;;;;;;1.13;0.50;;;;;;;;;;5080191;28;20123;-92
2022/04/04 14:53:10;;;;;;;0.40;0.40;;;;;;;;;;5045403;28;20032;-83